• Join FlightAware (Why Join?)
  • Login
  • US Flag 
11:30PM EDT


 

Airport Tracker/Info


-or-


 

Live Flight TrackerFlight Track Log ✈ AAL1593 ✈ 03-May-2013 ✈ KMCO - KMIA

Flight Track Log - Related Links

Times and Time Zones

All times are in EDT time to prevent confusion due to time zone crossing. See the AAL1593 flight status page for this flight to view local times or setup timezone preferences in your user account.

Time Position Orientation Groundspeed Altitude Reporting Facility
EDT Latitude Longitude Course Direction KTS MPH feet Rate Location/Type
12:22PM 28.4333 -81.3000 139° Southeast 163 188 800  Level Orlando TRACON
12:22PM 28.4500 -81.2833 41° Northeast 172 198 1,700 2,460 Climbing Orlando TRACON
12:23PM 28.4833 -81.2333 53° Northeast 235 270 4,000 2,520 Climbing Orlando TRACON
12:24PM 28.2733 -80.9853 122° Southeast  Level FlightAware Approximate
12:24PM 28.5167 -81.1500 66° East 278 320 6,800  Level Orlando TRACON
12:25PM 28.2168 -80.8835 122° Southeast  Level FlightAware Approximate
12:26PM 28.1730 -80.7740 114° Southeast  Level FlightAware Approximate
12:26PM 28.4539 -80.9956 115° Southeast 276 318 12,000  Level Miami Center
12:27PM 28.1190 -80.6856 139° Southeast  Level FlightAware Approximate
12:27PM 28.3533 -80.9331 151° Southeast 313 360 15,700  Level Miami Center
12:28PM 28.2550 -80.8681 150° Southeast 372 428 17,800 2,280 Climbing Miami Center
12:29PM 28.1650 -80.8083 150° Southeast 402 463 20,300 2,340 Climbing Miami Center
12:30PM 28.0603 -80.7389 150° Southeast 425 489 22,500 1,320 Climbing Miami Center
12:31PM 27.9517 -80.6669 150° Southeast 437 503 23,000 240 Climbing Miami Center
12:32PM 27.8386 -80.5975 151° Southeast 449 517 23,000  Level Miami Center
12:33PM 27.7300 -80.5258 150° Southeast 449 517 23,000  Level Miami Center
12:34PM 27.6083 -80.4633 156° South 449 517 23,000  Level Miami Center
12:35PM 27.4906 -80.4153 160° South 449 517 23,000  Level Miami Center
12:36PM 27.3747 -80.3697 161° South 444 511 23,000  Level Miami Center
12:37PM 27.2547 -80.3217 160° South 444 511 23,000  Level Miami Center
12:38PM 27.1369 -80.2761 161° South 444 511 23,000 -540 Level Miami Center
12:39PM 27.0189 -80.2261 159° South 444 511 22,000 -1,800 Descending Miami Center
12:40PM 26.9053 -80.1831 161° South 444 511 19,500 -2,580 Descending Miami Center
12:41PM 26.8081 -80.1408 159° South 428 493 16,900 -2,700 Descending Miami Center
12:42PM 26.6900 -80.0933 160° South 414 476 14,100 -2,340 Descending Miami Center
12:43PM 26.5944 -80.0744 170° South 393 452 12,200 -1,560 Descending Miami Center
12:44PM 26.4944 -80.0556 170° South 361 415 11,000 -660 Descending Miami Center
12:45PM 26.4133 -80.0417 171° South 316 364 11,000 -300 Level Miami Center
12:46PM 26.3322 -80.0278 171° South 295 339 10,500 -780 Descending Miami Center
12:47PM 26.2553 -80.0142 171° South 290 334 9,500 -780 Descending Miami Center
12:48PM 26.1775 -80.0353 194° South 285 328 9,000 -360 Descending Miami Center
12:49PM 26.1017 -80.0564 194° South 285 328 8,800 -780 Descending Miami Center
12:50PM 26.0283 -80.0775 195° South 285 328 7,500 -1,500 Descending Miami Center
12:51PM 25.9547 -80.0986 194° South 280 322 5,900 -1,620 Descending Miami Center